sensor_id;sensor_type;location;lat;lon;timestamp;temperature;humidity
16404;DHT22;8311;50.158;8.642;2023-02-21T00:00:14;21.70;48.10
16404;DHT22;8311;50.158;8.642;2023-02-21T00:03:25;21.70;48.10
16404;DHT22;8311;50.158;8.642;2023-02-21T00:06:36;21.70;48.10
16404;DHT22;8311;50.158;8.642;2023-02-21T00:09:47;21.60;48.10
16404;DHT22;8311;50.158;8.642;2023-02-21T00:12:57;21.60;48.00
16404;DHT22;8311;50.158;8.642;2023-02-21T00:16:08;21.60;48.00
16404;DHT22;8311;50.158;8.642;2023-02-21T00:19:19;21.60;48.00
16404;DHT22;8311;50.158;8.642;2023-02-21T00:22:29;21.60;48.00
16404;DHT22;8311;50.158;8.642;2023-02-21T00:25:39;21.60;48.00
16404;DHT22;8311;50.158;8.642;2023-02-21T00:28:49;21.60;48.00
16404;DHT22;8311;50.158;8.642;2023-02-21T00:32:00;21.60;48.00
16404;DHT22;8311;50.158;8.642;2023-02-21T00:35:11;21.60;48.20
16404;DHT22;8311;50.158;8.642;2023-02-21T00:38:22;21.60;48.00
16404;DHT22;8311;50.158;8.642;2023-02-21T00:41:32;21.60;48.00
16404;DHT22;8311;50.158;8.642;2023-02-21T00:44:42;21.60;48.00
16404;DHT22;8311;50.158;8.642;2023-02-21T00:47:54;21.60;48.00
16404;DHT22;8311;50.158;8.642;2023-02-21T00:51:05;21.60;48.00
16404;DHT22;8311;50.158;8.642;2023-02-21T00:54:16;21.60;48.00
16404;DHT22;8311;50.158;8.642;2023-02-21T00:57:26;21.60;48.00
16404;DHT22;8311;50.158;8.642;2023-02-21T01:00:36;21.60;47.70
16404;DHT22;8311;50.158;8.642;2023-02-21T01:03:48;21.60;47.60
16404;DHT22;8311;50.158;8.642;2023-02-21T01:06:59;21.60;47.70
16404;DHT22;8311;50.158;8.642;2023-02-21T01:10:10;21.60;47.90
16404;DHT22;8311;50.158;8.642;2023-02-21T01:13:20;21.60;47.70
16404;DHT22;8311;50.158;8.642;2023-02-21T01:16:31;21.50;47.30
16404;DHT22;8311;50.158;8.642;2023-02-21T01:19:43;21.50;46.90
16404;DHT22;8311;50.158;8.642;2023-02-21T01:22:54;21.50;46.60
16404;DHT22;8311;50.158;8.642;2023-02-21T01:26:04;21.50;46.30
16404;DHT22;8311;50.158;8.642;2023-02-21T01:29:15;21.50;46.00
16404;DHT22;8311;50.158;8.642;2023-02-21T01:32:26;21.50;45.60
16404;DHT22;8311;50.158;8.642;2023-02-21T01:35:37;21.50;45.40
16404;DHT22;8311;50.158;8.642;2023-02-21T01:38:48;21.50;45.20
16404;DHT22;8311;50.158;8.642;2023-02-21T01:41:58;21.50;45.00
16404;DHT22;8311;50.158;8.642;2023-02-21T01:45:41;21.50;44.80
16404;DHT22;8311;50.158;8.642;2023-02-21T01:48:54;21.50;44.60
16404;DHT22;8311;50.158;8.642;2023-02-21T01:52:06;21.50;44.40
16404;DHT22;8311;50.158;8.642;2023-02-21T01:55:17;21.40;44.20
16404;DHT22;8311;50.158;8.642;2023-02-21T01:58:29;21.40;44.10
16404;DHT22;8311;50.158;8.642;2023-02-21T02:01:46;21.40;44.00
16404;DHT22;8311;50.158;8.642;2023-02-21T02:04:59;21.40;44.00
16404;DHT22;8311;50.158;8.642;2023-02-21T02:08:11;21.40;43.90
16404;DHT22;8311;50.158;8.642;2023-02-21T02:11:42;21.40;43.90
16404;DHT22;8311;50.158;8.642;2023-02-21T02:15:27;21.40;43.90
16404;DHT22;8311;50.158;8.642;2023-02-21T02:18:53;21.40;43.80
16404;DHT22;8311;50.158;8.642;2023-02-21T02:22:07;21.40;43.80
16404;DHT22;8311;50.158;8.642;2023-02-21T02:25:17;21.30;43.70
16404;DHT22;8311;50.158;8.642;2023-02-21T02:28:32;21.30;43.60
16404;DHT22;8311;50.158;8.642;2023-02-21T02:31:54;21.30;43.50
16404;DHT22;8311;50.158;8.642;2023-02-21T02:34:55;21.30;43.40
16404;DHT22;8311;50.158;8.642;2023-02-21T02:37:55;21.30;43.40
16404;DHT22;8311;50.158;8.642;2023-02-21T02:40:57;21.30;43.30
16404;DHT22;8311;50.158;8.642;2023-02-21T02:43:54;21.30;43.30
16404;DHT22;8311;50.158;8.642;2023-02-21T02:46:50;21.30;43.20
16404;DHT22;8311;50.158;8.642;2023-02-21T02:49:44;21.30;43.20
16404;DHT22;8311;50.158;8.642;2023-02-21T02:52:50;21.30;43.10
16404;DHT22;8311;50.158;8.642;2023-02-21T02:55:47;21.30;43.70
16404;DHT22;8311;50.158;8.642;2023-02-21T02:58:45;21.20;43.00
16404;DHT22;8311;50.158;8.642;2023-02-21T03:01:55;21.20;42.90
16404;DHT22;8311;50.158;8.642;2023-02-21T03:08:25;21.20;42.80
16404;DHT22;8311;50.158;8.642;2023-02-21T03:11:21;21.20;42.80
16404;DHT22;8311;50.158;8.642;2023-02-21T03:14:17;21.20;42.80
16404;DHT22;8311;50.158;8.642;2023-02-21T03:17:14;21.20;42.80
16404;DHT22;8311;50.158;8.642;2023-02-21T03:20:11;21.20;42.80
16404;DHT22;8311;50.158;8.642;2023-02-21T03:23:07;21.20;42.80
16404;DHT22;8311;50.158;8.642;2023-02-21T03:26:05;21.20;43.40
16404;DHT22;8311;50.158;8.642;2023-02-21T03:29:00;21.20;42.70
16404;DHT22;8311;50.158;8.642;2023-02-21T03:31:55;21.20;42.70
16404;DHT22;8311;50.158;8.642;2023-02-21T03:34:50;21.20;42.60
16404;DHT22;8311;50.158;8.642;2023-02-21T03:37:44;21.10;42.60
16404;DHT22;8311;50.158;8.642;2023-02-21T03:40:38;21.10;42.60
16404;DHT22;8311;50.158;8.642;2023-02-21T03:43:32;21.10;42.60
16404;DHT22;8311;50.158;8.642;2023-02-21T03:46:26;21.10;42.50
16404;DHT22;8311;50.158;8.642;2023-02-21T03:49:19;21.10;42.50
16404;DHT22;8311;50.158;8.642;2023-02-21T03:52:12;21.10;42.30
16404;DHT22;8311;50.158;8.642;2023-02-21T03:55:07;21.10;42.30
16404;DHT22;8311;50.158;8.642;2023-02-21T03:58:00;21.10;42.20
16404;DHT22;8311;50.158;8.642;2023-02-21T04:00:54;21.10;42.20
16404;DHT22;8311;50.158;8.642;2023-02-21T04:03:48;21.10;42.20
16404;DHT22;8311;50.158;8.642;2023-02-21T04:06:42;21.10;42.30
16404;DHT22;8311;50.158;8.642;2023-02-21T04:09:35;21.10;42.30
16404;DHT22;8311;50.158;8.642;2023-02-21T04:12:29;21.10;42.20
16404;DHT22;8311;50.158;8.642;2023-02-21T04:15:22;21.00;42.00
16404;DHT22;8311;50.158;8.642;2023-02-21T04:18:16;21.10;42.00
16404;DHT22;8311;50.158;8.642;2023-02-21T04:21:10;21.00;41.90
16404;DHT22;8311;50.158;8.642;2023-02-21T04:24:07;21.10;42.00
16404;DHT22;8311;50.158;8.642;2023-02-21T04:27:00;21.00;41.80
16404;DHT22;8311;50.158;8.642;2023-02-21T04:29:54;21.10;41.90
16404;DHT22;8311;50.158;8.642;2023-02-21T04:32:47;21.10;41.90
16404;DHT22;8311;50.158;8.642;2023-02-21T04:35:41;21.00;42.00
16404;DHT22;8311;50.158;8.642;2023-02-21T04:38:35;21.00;42.00
16404;DHT22;8311;50.158;8.642;2023-02-21T04:41:29;21.00;42.10
16404;DHT22;8311;50.158;8.642;2023-02-21T04:44:22;21.00;42.10
16404;DHT22;8311;50.158;8.642;2023-02-21T04:47:15;21.00;42.10
16404;DHT22;8311;50.158;8.642;2023-02-21T04:50:08;21.00;42.10
16404;DHT22;8311;50.158;8.642;2023-02-21T04:53:02;21.00;42.00
16404;DHT22;8311;50.158;8.642;2023-02-21T04:55:55;21.00;42.00
16404;DHT22;8311;50.158;8.642;2023-02-21T04:58:49;21.00;42.00
16404;DHT22;8311;50.158;8.642;2023-02-21T05:01:43;21.00;42.00
16404;DHT22;8311;50.158;8.642;2023-02-21T05:04:36;21.00;42.00
16404;DHT22;8311;50.158;8.642;2023-02-21T05:07:30;21.00;42.00
16404;DHT22;8311;50.158;8.642;2023-02-21T05:10:24;21.00;41.90
16404;DHT22;8311;50.158;8.642;2023-02-21T05:13:35;20.90;41.80
16404;DHT22;8311;50.158;8.642;2023-02-21T05:16:28;20.90;41.80
16404;DHT22;8311;50.158;8.642;2023-02-21T05:19:22;20.90;41.80
16404;DHT22;8311;50.158;8.642;2023-02-21T05:22:18;20.90;41.80
16404;DHT22;8311;50.158;8.642;2023-02-21T05:25:14;20.90;41.80
16404;DHT22;8311;50.158;8.642;2023-02-21T05:28:10;20.90;41.90
16404;DHT22;8311;50.158;8.642;2023-02-21T05:31:03;20.90;41.90
16404;DHT22;8311;50.158;8.642;2023-02-21T05:33:57;20.90;41.90
16404;DHT22;8311;50.158;8.642;2023-02-21T05:36:50;20.90;41.90
16404;DHT22;8311;50.158;8.642;2023-02-21T05:39:43;20.90;41.90
16404;DHT22;8311;50.158;8.642;2023-02-21T05:42:36;20.90;41.90
16404;DHT22;8311;50.158;8.642;2023-02-21T05:45:30;20.90;41.90
16404;DHT22;8311;50.158;8.642;2023-02-21T05:48:23;20.90;41.90
16404;DHT22;8311;50.158;8.642;2023-02-21T05:51:17;20.80;41.90
16404;DHT22;8311;50.158;8.642;2023-02-21T05:54:15;20.90;42.00
16404;DHT22;8311;50.158;8.642;2023-02-21T05:57:09;20.80;41.90
16404;DHT22;8311;50.158;8.642;2023-02-21T06:00:02;20.80;41.90
16404;DHT22;8311;50.158;8.642;2023-02-21T06:02:57;20.80;41.90
16404;DHT22;8311;50.158;8.642;2023-02-21T06:05:51;20.80;41.90
16404;DHT22;8311;50.158;8.642;2023-02-21T06:08:45;20.80;41.90
16404;DHT22;8311;50.158;8.642;2023-02-21T06:11:39;20.80;41.90
16404;DHT22;8311;50.158;8.642;2023-02-21T06:14:32;20.80;41.90
16404;DHT22;8311;50.158;8.642;2023-02-21T06:17:25;20.80;41.90
16404;DHT22;8311;50.158;8.642;2023-02-21T06:20:20;20.80;41.80
16404;DHT22;8311;50.158;8.642;2023-02-21T06:23:13;20.70;41.80
16404;DHT22;8311;50.158;8.642;2023-02-21T06:26:06;20.70;41.80
16404;DHT22;8311;50.158;8.642;2023-02-21T06:28:59;20.80;41.90
16404;DHT22;8311;50.158;8.642;2023-02-21T06:31:55;20.80;41.80
16404;DHT22;8311;50.158;8.642;2023-02-21T06:34:48;20.80;41.70
16404;DHT22;8311;50.158;8.642;2023-02-21T06:37:43;20.70;41.60
16404;DHT22;8311;50.158;8.642;2023-02-21T06:40:36;20.70;41.50
16404;DHT22;8311;50.158;8.642;2023-02-21T06:43:29;20.70;41.50
16404;DHT22;8311;50.158;8.642;2023-02-21T06:46:24;20.70;41.60
16404;DHT22;8311;50.158;8.642;2023-02-21T06:49:23;20.70;41.70
16404;DHT22;8311;50.158;8.642;2023-02-21T06:52:18;20.70;41.50
16404;DHT22;8311;50.158;8.642;2023-02-21T06:55:18;20.70;41.60
16404;DHT22;8311;50.158;8.642;2023-02-21T06:58:12;20.70;41.60
16404;DHT22;8311;50.158;8.642;2023-02-21T07:01:05;20.70;41.60
16404;DHT22;8311;50.158;8.642;2023-02-21T07:03:58;20.70;41.60
16404;DHT22;8311;50.158;8.642;2023-02-21T07:06:51;20.70;41.70
16404;DHT22;8311;50.158;8.642;2023-02-21T07:09:44;20.70;41.50
16404;DHT22;8311;50.158;8.642;2023-02-21T07:12:39;20.70;41.50
16404;DHT22;8311;50.158;8.642;2023-02-21T07:15:32;20.70;41.50
16404;DHT22;8311;50.158;8.642;2023-02-21T07:18:27;20.70;41.50
16404;DHT22;8311;50.158;8.642;2023-02-21T07:21:20;20.70;41.60
16404;DHT22;8311;50.158;8.642;2023-02-21T07:24:14;20.70;41.50
16404;DHT22;8311;50.158;8.642;2023-02-21T07:27:07;20.70;41.40
16404;DHT22;8311;50.158;8.642;2023-02-21T07:30:05;20.70;41.30
16404;DHT22;8311;50.158;8.642;2023-02-21T07:32:59;20.70;41.40
16404;DHT22;8311;50.158;8.642;2023-02-21T07:35:52;20.60;41.30
16404;DHT22;8311;50.158;8.642;2023-02-21T07:38:45;20.60;41.40
16404;DHT22;8311;50.158;8.642;2023-02-21T07:41:38;20.60;41.40
16404;DHT22;8311;50.158;8.642;2023-02-21T07:44:31;20.60;41.40
16404;DHT22;8311;50.158;8.642;2023-02-21T07:47:26;20.60;41.30
16404;DHT22;8311;50.158;8.642;2023-02-21T07:50:19;20.60;41.30
16404;DHT22;8311;50.158;8.642;2023-02-21T07:53:15;20.60;41.30
16404;DHT22;8311;50.158;8.642;2023-02-21T07:56:08;20.60;41.10
16404;DHT22;8311;50.158;8.642;2023-02-21T07:59:01;20.60;41.00
16404;DHT22;8311;50.158;8.642;2023-02-21T08:01:54;20.60;41.10
16404;DHT22;8311;50.158;8.642;2023-02-21T08:04:51;20.60;41.00
16404;DHT22;8311;50.158;8.642;2023-02-21T08:07:45;20.60;41.20
16404;DHT22;8311;50.158;8.642;2023-02-21T08:10:38;20.70;41.40
16404;DHT22;8311;50.158;8.642;2023-02-21T08:13:33;20.60;41.60
16404;DHT22;8311;50.158;8.642;2023-02-21T08:16:25;20.70;41.70
16404;DHT22;8311;50.158;8.642;2023-02-21T08:19:19;20.70;42.00
16404;DHT22;8311;50.158;8.642;2023-02-21T08:22:14;20.70;41.80
16404;DHT22;8311;50.158;8.642;2023-02-21T08:25:09;20.70;41.70
16404;DHT22;8311;50.158;8.642;2023-02-21T08:28:02;20.70;42.50
16404;DHT22;8311;50.158;8.642;2023-02-21T08:30:55;20.70;41.80
16404;DHT22;8311;50.158;8.642;2023-02-21T08:33:49;20.70;41.70
16404;DHT22;8311;50.158;8.642;2023-02-21T08:36:42;20.80;41.90
16404;DHT22;8311;50.158;8.642;2023-02-21T08:39:37;20.80;41.80
16404;DHT22;8311;50.158;8.642;2023-02-21T08:42:30;20.90;41.80
16404;DHT22;8311;50.158;8.642;2023-02-21T08:45:25;20.90;41.80
16404;DHT22;8311;50.158;8.642;2023-02-21T08:48:19;21.00;41.90
16404;DHT22;8311;50.158;8.642;2023-02-21T08:51:12;21.00;41.90
16404;DHT22;8311;50.158;8.642;2023-02-21T08:54:07;21.00;42.00
16404;DHT22;8311;50.158;8.642;2023-02-21T08:57:02;21.10;42.10
16404;DHT22;8311;50.158;8.642;2023-02-21T08:59:55;21.10;42.70
16404;DHT22;8311;50.158;8.642;2023-02-21T09:02:49;21.20;42.70
16404;DHT22;8311;50.158;8.642;2023-02-21T09:05:42;21.20;42.80
16404;DHT22;8311;50.158;8.642;2023-02-21T09:08:35;21.30;42.70
16404;DHT22;8311;50.158;8.642;2023-02-21T09:11:29;21.40;42.50
16404;DHT22;8311;50.158;8.642;2023-02-21T09:14:24;21.40;42.50
16404;DHT22;8311;50.158;8.642;2023-02-21T09:17:17;21.40;42.40
16404;DHT22;8311;50.158;8.642;2023-02-21T09:20:15;21.40;42.30
16404;DHT22;8311;50.158;8.642;2023-02-21T09:23:09;21.40;42.00
16404;DHT22;8311;50.158;8.642;2023-02-21T09:26:04;21.40;42.00
16404;DHT22;8311;50.158;8.642;2023-02-21T09:28:57;21.40;41.60
16404;DHT22;8311;50.158;8.642;2023-02-21T09:31:52;21.30;41.40
16404;DHT22;8311;50.158;8.642;2023-02-21T09:34:45;21.30;41.30
16404;DHT22;8311;50.158;8.642;2023-02-21T09:37:39;21.30;41.30
16404;DHT22;8311;50.158;8.642;2023-02-21T09:40:35;21.30;41.40
16404;DHT22;8311;50.158;8.642;2023-02-21T09:43:34;21.30;41.60
16404;DHT22;8311;50.158;8.642;2023-02-21T09:46:33;21.30;41.70
16404;DHT22;8311;50.158;8.642;2023-02-21T09:49:32;21.30;41.90
16404;DHT22;8311;50.158;8.642;2023-02-21T09:52:29;21.30;42.10
16404;DHT22;8311;50.158;8.642;2023-02-21T09:55:28;21.30;42.20
16404;DHT22;8311;50.158;8.642;2023-02-21T09:58:24;21.20;42.00
16404;DHT22;8311;50.158;8.642;2023-02-21T10:01:24;21.20;42.00
16404;DHT22;8311;50.158;8.642;2023-02-21T10:04:27;21.20;42.30
16404;DHT22;8311;50.158;8.642;2023-02-21T10:07:33;21.20;42.20
16404;DHT22;8311;50.158;8.642;2023-02-21T10:10:33;21.20;42.30
16404;DHT22;8311;50.158;8.642;2023-02-21T10:13:34;21.20;42.30
16404;DHT22;8311;50.158;8.642;2023-02-21T10:16:32;21.20;42.00
16404;DHT22;8311;50.158;8.642;2023-02-21T10:19:30;21.20;42.20
16404;DHT22;8311;50.158;8.642;2023-02-21T10:22:31;21.20;42.10
16404;DHT22;8311;50.158;8.642;2023-02-21T10:25:28;21.20;42.10
16404;DHT22;8311;50.158;8.642;2023-02-21T10:28:24;21.20;42.40
16404;DHT22;8311;50.158;8.642;2023-02-21T10:31:22;21.20;42.70
16404;DHT22;8311;50.158;8.642;2023-02-21T10:34:21;21.20;42.90
16404;DHT22;8311;50.158;8.642;2023-02-21T10:37:27;21.20;43.10
16404;DHT22;8311;50.158;8.642;2023-02-21T10:40:29;21.20;43.30
16404;DHT22;8311;50.158;8.642;2023-02-21T10:43:27;21.20;43.60
16404;DHT22;8311;50.158;8.642;2023-02-21T10:46:27;21.20;43.60
16404;DHT22;8311;50.158;8.642;2023-02-21T10:49:24;21.20;43.50
16404;DHT22;8311;50.158;8.642;2023-02-21T10:52:20;21.20;43.70
16404;DHT22;8311;50.158;8.642;2023-02-21T10:55:16;21.20;43.80
16404;DHT22;8311;50.158;8.642;2023-02-21T10:58:26;21.20;44.10
16404;DHT22;8311;50.158;8.642;2023-02-21T11:01:22;21.20;43.90
16404;DHT22;8311;50.158;8.642;2023-02-21T11:04:24;21.20;43.70
16404;DHT22;8311;50.158;8.642;2023-02-21T11:07:18;21.20;43.50
16404;DHT22;8311;50.158;8.642;2023-02-21T11:10:30;21.20;43.60
16404;DHT22;8311;50.158;8.642;2023-02-21T11:13:25;21.20;43.50
16404;DHT22;8311;50.158;8.642;2023-02-21T11:16:20;21.20;43.20
16404;DHT22;8311;50.158;8.642;2023-02-21T11:19:15;21.20;43.30
16404;DHT22;8311;50.158;8.642;2023-02-21T11:22:09;21.20;43.20
16404;DHT22;8311;50.158;8.642;2023-02-21T11:25:04;21.20;43.30
16404;DHT22;8311;50.158;8.642;2023-02-21T11:28:04;21.20;43.40
16404;DHT22;8311;50.158;8.642;2023-02-21T11:31:07;21.30;43.30
16404;DHT22;8311;50.158;8.642;2023-02-21T11:34:03;21.20;43.70
16404;DHT22;8311;50.158;8.642;2023-02-21T11:37:02;21.20;43.60
16404;DHT22;8311;50.158;8.642;2023-02-21T11:39:57;21.20;43.40
16404;DHT22;8311;50.158;8.642;2023-02-21T11:43:15;21.30;43.90
16404;DHT22;8311;50.158;8.642;2023-02-21T11:46:14;21.30;43.60
16404;DHT22;8311;50.158;8.642;2023-02-21T11:49:17;21.30;43.40
16404;DHT22;8311;50.158;8.642;2023-02-21T11:52:16;21.30;43.30
16404;DHT22;8311;50.158;8.642;2023-02-21T11:55:13;21.30;43.40
16404;DHT22;8311;50.158;8.642;2023-02-21T11:58:16;21.30;43.30
16404;DHT22;8311;50.158;8.642;2023-02-21T12:01:14;21.30;43.10
16404;DHT22;8311;50.158;8.642;2023-02-21T12:04:27;21.30;43.30
16404;DHT22;8311;50.158;8.642;2023-02-21T12:07:29;21.40;43.40
16404;DHT22;8311;50.158;8.642;2023-02-21T12:10:39;21.40;43.50
16404;DHT22;8311;50.158;8.642;2023-02-21T12:13:42;21.40;43.50
16404;DHT22;8311;50.158;8.642;2023-02-21T12:16:45;21.50;43.70
16404;DHT22;8311;50.158;8.642;2023-02-21T12:20:02;21.50;43.40
16404;DHT22;8311;50.158;8.642;2023-02-21T12:23:06;21.50;43.50
16404;DHT22;8311;50.158;8.642;2023-02-21T12:26:13;21.50;43.70
16404;DHT22;8311;50.158;8.642;2023-02-21T12:29:24;21.50;43.20
16404;DHT22;8311;50.158;8.642;2023-02-21T12:32:34;21.50;42.90
16404;DHT22;8311;50.158;8.642;2023-02-21T12:36:09;21.60;43.20
16404;DHT22;8311;50.158;8.642;2023-02-21T12:39:18;21.50;43.10
16404;DHT22;8311;50.158;8.642;2023-02-21T12:42:27;21.60;43.20
16404;DHT22;8311;50.158;8.642;2023-02-21T12:45:39;21.60;43.10
16404;DHT22;8311;50.158;8.642;2023-02-21T12:48:38;21.60;42.80
16404;DHT22;8311;50.158;8.642;2023-02-21T12:51:37;21.60;43.10
16404;DHT22;8311;50.158;8.642;2023-02-21T12:54:38;21.60;43.20
16404;DHT22;8311;50.158;8.642;2023-02-21T12:57:41;21.60;43.20
16404;DHT22;8311;50.158;8.642;2023-02-21T13:00:42;21.60;43.00
16404;DHT22;8311;50.158;8.642;2023-02-21T13:03:48;21.60;43.30
16404;DHT22;8311;50.158;8.642;2023-02-21T13:06:48;21.70;43.20
16404;DHT22;8311;50.158;8.642;2023-02-21T13:09:48;21.60;43.00
16404;DHT22;8311;50.158;8.642;2023-02-21T13:12:44;21.60;43.30
16404;DHT22;8311;50.158;8.642;2023-02-21T13:15:41;21.60;43.30
16404;DHT22;8311;50.158;8.642;2023-02-21T13:18:39;21.60;43.30
16404;DHT22;8311;50.158;8.642;2023-02-21T13:21:49;21.60;43.40
16404;DHT22;8311;50.158;8.642;2023-02-21T13:24:51;21.60;43.20
16404;DHT22;8311;50.158;8.642;2023-02-21T13:27:53;21.60;43.40
16404;DHT22;8311;50.158;8.642;2023-02-21T13:30:52;21.60;43.30
16404;DHT22;8311;50.158;8.642;2023-02-21T13:33:49;21.60;43.30
16404;DHT22;8311;50.158;8.642;2023-02-21T13:36:45;21.60;43.50
16404;DHT22;8311;50.158;8.642;2023-02-21T13:39:44;21.60;44.30
16404;DHT22;8311;50.158;8.642;2023-02-21T13:42:39;21.50;43.50
16404;DHT22;8311;50.158;8.642;2023-02-21T13:45:32;21.50;43.20
16404;DHT22;8311;50.158;8.642;2023-02-21T13:48:29;21.50;43.10
16404;DHT22;8311;50.158;8.642;2023-02-21T13:51:44;21.50;43.30
16404;DHT22;8311;50.158;8.642;2023-02-21T13:58:33;21.50;43.30
16404;DHT22;8311;50.158;8.642;2023-02-21T14:01:48;21.40;43.30
16404;DHT22;8311;50.158;8.642;2023-02-21T14:05:05;21.40;43.20
16404;DHT22;8311;50.158;8.642;2023-02-21T14:08:00;21.50;43.30
16404;DHT22;8311;50.158;8.642;2023-02-21T14:10:56;21.40;43.30
16404;DHT22;8311;50.158;8.642;2023-02-21T14:13:52;21.40;44.10
16404;DHT22;8311;50.158;8.642;2023-02-21T14:16:47;21.40;43.50
16404;DHT22;8311;50.158;8.642;2023-02-21T14:19:45;21.50;43.50
16404;DHT22;8311;50.158;8.642;2023-02-21T14:22:41;21.40;43.50
16404;DHT22;8311;50.158;8.642;2023-02-21T14:25:34;21.40;43.50
16404;DHT22;8311;50.158;8.642;2023-02-21T14:28:58;21.40;43.60
16404;DHT22;8311;50.158;8.642;2023-02-21T14:31:54;21.40;43.60
16404;DHT22;8311;50.158;8.642;2023-02-21T14:34:52;21.40;43.50
16404;DHT22;8311;50.158;8.642;2023-02-21T14:37:53;21.40;43.40
16404;DHT22;8311;50.158;8.642;2023-02-21T14:41:00;21.40;43.50
16404;DHT22;8311;50.158;8.642;2023-02-21T14:44:09;21.40;43.40
16404;DHT22;8311;50.158;8.642;2023-02-21T14:47:20;21.40;43.40
16404;DHT22;8311;50.158;8.642;2023-02-21T14:50:29;21.40;43.30
16404;DHT22;8311;50.158;8.642;2023-02-21T14:53:56;21.40;43.40
16404;DHT22;8311;50.158;8.642;2023-02-21T15:00:24;21.40;43.30
16404;DHT22;8311;50.158;8.642;2023-02-21T15:03:24;21.40;43.30
16404;DHT22;8311;50.158;8.642;2023-02-21T15:06:21;21.30;43.30
16404;DHT22;8311;50.158;8.642;2023-02-21T15:09:19;21.30;43.30
16404;DHT22;8311;50.158;8.642;2023-02-21T15:12:17;21.30;43.30
16404;DHT22;8311;50.158;8.642;2023-02-21T15:15:16;21.30;43.40
16404;DHT22;8311;50.158;8.642;2023-02-21T15:18:12;21.30;43.50
16404;DHT22;8311;50.158;8.642;2023-02-21T15:21:17;21.30;43.50
16404;DHT22;8311;50.158;8.642;2023-02-21T15:24:12;21.30;43.40
16404;DHT22;8311;50.158;8.642;2023-02-21T15:27:11;21.30;43.40
16404;DHT22;8311;50.158;8.642;2023-02-21T15:30:07;21.30;43.40
16404;DHT22;8311;50.158;8.642;2023-02-21T15:33:13;21.30;43.40
16404;DHT22;8311;50.158;8.642;2023-02-21T15:36:12;21.30;43.50
16404;DHT22;8311;50.158;8.642;2023-02-21T15:39:14;21.30;43.40
16404;DHT22;8311;50.158;8.642;2023-02-21T15:42:14;21.30;43.40
16404;DHT22;8311;50.158;8.642;2023-02-21T15:45:14;21.30;43.50
16404;DHT22;8311;50.158;8.642;2023-02-21T15:48:07;21.30;43.50
16404;DHT22;8311;50.158;8.642;2023-02-21T15:51:03;21.30;43.50
16404;DHT22;8311;50.158;8.642;2023-02-21T15:54:08;21.30;43.60
16404;DHT22;8311;50.158;8.642;2023-02-21T15:57:21;21.20;43.60
16404;DHT22;8311;50.158;8.642;2023-02-21T16:00:19;21.20;43.60
16404;DHT22;8311;50.158;8.642;2023-02-21T16:03:28;21.20;43.60
16404;DHT22;8311;50.158;8.642;2023-02-21T16:06:23;21.20;43.60
16404;DHT22;8311;50.158;8.642;2023-02-21T16:09:24;21.20;43.70
16404;DHT22;8311;50.158;8.642;2023-02-21T16:12:30;21.20;43.70
16404;DHT22;8311;50.158;8.642;2023-02-21T16:15:26;21.20;43.70
16404;DHT22;8311;50.158;8.642;2023-02-21T16:18:19;21.20;44.50
16404;DHT22;8311;50.158;8.642;2023-02-21T16:21:22;21.20;44.30
16404;DHT22;8311;50.158;8.642;2023-02-21T16:24:27;21.20;44.40
16404;DHT22;8311;50.158;8.642;2023-02-21T16:27:20;21.20;44.60
16404;DHT22;8311;50.158;8.642;2023-02-21T16:30:17;21.20;44.80
16404;DHT22;8311;50.158;8.642;2023-02-21T16:33:11;21.20;44.90
16404;DHT22;8311;50.158;8.642;2023-02-21T16:36:07;21.20;45.00
16404;DHT22;8311;50.158;8.642;2023-02-21T16:39:01;21.20;45.10
16404;DHT22;8311;50.158;8.642;2023-02-21T16:41:55;21.20;45.30
16404;DHT22;8311;50.158;8.642;2023-02-21T16:44:49;21.20;45.60
16404;DHT22;8311;50.158;8.642;2023-02-21T16:47:43;21.20;45.60
16404;DHT22;8311;50.158;8.642;2023-02-21T16:50:40;21.20;45.70
16404;DHT22;8311;50.158;8.642;2023-02-21T16:53:33;21.30;45.70
16404;DHT22;8311;50.158;8.642;2023-02-21T16:56:26;21.20;45.70
16404;DHT22;8311;50.158;8.642;2023-02-21T16:59:20;21.20;45.80
16404;DHT22;8311;50.158;8.642;2023-02-21T17:02:14;21.30;45.90
16404;DHT22;8311;50.158;8.642;2023-02-21T17:05:09;21.30;46.10
16404;DHT22;8311;50.158;8.642;2023-02-21T17:08:03;21.30;46.00
16404;DHT22;8311;50.158;8.642;2023-02-21T17:10:57;21.30;46.10
16404;DHT22;8311;50.158;8.642;2023-02-21T17:13:51;21.30;46.10
16404;DHT22;8311;50.158;8.642;2023-02-21T17:16:44;21.30;46.20
16404;DHT22;8311;50.158;8.642;2023-02-21T17:19:38;21.30;46.40
16404;DHT22;8311;50.158;8.642;2023-02-21T17:22:32;21.30;46.30
16404;DHT22;8311;50.158;8.642;2023-02-21T17:25:26;21.20;46.20
16404;DHT22;8311;50.158;8.642;2023-02-21T17:28:20;21.30;46.60
16404;DHT22;8311;50.158;8.642;2023-02-21T17:31:14;21.30;46.90
16404;DHT22;8311;50.158;8.642;2023-02-21T17:34:11;21.30;46.90
16404;DHT22;8311;50.158;8.642;2023-02-21T17:37:04;21.30;46.70
16404;DHT22;8311;50.158;8.642;2023-02-21T17:39:58;21.30;46.80
16404;DHT22;8311;50.158;8.642;2023-02-21T17:42:52;21.30;47.00
16404;DHT22;8311;50.158;8.642;2023-02-21T17:45:45;21.30;47.00
16404;DHT22;8311;50.158;8.642;2023-02-21T17:48:40;21.30;47.00
16404;DHT22;8311;50.158;8.642;2023-02-21T17:51:33;21.30;47.00
16404;DHT22;8311;50.158;8.642;2023-02-21T17:54:26;21.30;47.00
16404;DHT22;8311;50.158;8.642;2023-02-21T17:57:20;21.30;46.80
16404;DHT22;8311;50.158;8.642;2023-02-21T18:00:18;21.30;46.90
16404;DHT22;8311;50.158;8.642;2023-02-21T18:03:15;21.30;46.90
16404;DHT22;8311;50.158;8.642;2023-02-21T18:06:08;21.30;46.90
16404;DHT22;8311;50.158;8.642;2023-02-21T18:09:03;21.30;46.90
16404;DHT22;8311;50.158;8.642;2023-02-21T18:11:58;21.30;46.90
16404;DHT22;8311;50.158;8.642;2023-02-21T18:14:53;21.30;47.10
16404;DHT22;8311;50.158;8.642;2023-02-21T18:17:45;21.30;47.00
16404;DHT22;8311;50.158;8.642;2023-02-21T18:20:39;21.30;47.10
16404;DHT22;8311;50.158;8.642;2023-02-21T18:23:32;21.30;46.90
16404;DHT22;8311;50.158;8.642;2023-02-21T18:26:26;21.30;47.10
16404;DHT22;8311;50.158;8.642;2023-02-21T18:29:19;21.30;47.10
16404;DHT22;8311;50.158;8.642;2023-02-21T18:32:13;21.30;47.10
16404;DHT22;8311;50.158;8.642;2023-02-21T18:35:07;21.30;47.20
16404;DHT22;8311;50.158;8.642;2023-02-21T18:38:01;21.30;47.10
16404;DHT22;8311;50.158;8.642;2023-02-21T18:40:53;21.30;47.10
16404;DHT22;8311;50.158;8.642;2023-02-21T18:43:51;21.30;47.10
16404;DHT22;8311;50.158;8.642;2023-02-21T18:46:48;21.30;47.20
16404;DHT22;8311;50.158;8.642;2023-02-21T18:49:43;21.30;47.10
16404;DHT22;8311;50.158;8.642;2023-02-21T18:52:36;21.30;47.20
16404;DHT22;8311;50.158;8.642;2023-02-21T18:55:30;21.30;47.10
16404;DHT22;8311;50.158;8.642;2023-02-21T18:58:24;21.30;47.20
16404;DHT22;8311;50.158;8.642;2023-02-21T19:01:19;21.30;47.20
16404;DHT22;8311;50.158;8.642;2023-02-21T19:04:12;21.30;47.10
16404;DHT22;8311;50.158;8.642;2023-02-21T19:07:09;21.30;47.40
16404;DHT22;8311;50.158;8.642;2023-02-21T19:10:06;21.30;47.20
16404;DHT22;8311;50.158;8.642;2023-02-21T19:13:03;21.30;47.20
16404;DHT22;8311;50.158;8.642;2023-02-21T19:15:56;21.20;47.10
16404;DHT22;8311;50.158;8.642;2023-02-21T19:18:53;21.30;47.20